OITM  Sahand Airport

Add Bookmark

Maragheh, Iran

Status IATA
Operational ACP
Latitude Longitude
37° 20' 52" N 46° 7' 40" E
37.348000 46.127899
Local (DST + 5) UTC (GMT + 4)
Nov 29, 2014 02:09 Nov 28, 2014 22:39
Sunrise-Sunset Local UTC
Begin Civil Twilight 06:49 03:19
Sunrise 07:17 03:47
Sunset 05:09 13:39
End Civil Twilight 05:38 14:08

Current Weather

METAR Observed VFR
OITM 282100Z 07008KT CAVOK 02/M02 Q1021 Fri, Nov 28, 2014 @ 21:00 UTC
(1 Hour, 39 Minutes ago)
Visual Flight Rules
Wind Visibility Clouds Conditions
070° at 8 knots (15 kph) 10 km or more
  • Clear skies
  • No significant weather
Temperatures Readings Precipitation
Current Temp 2°C (36°F)
Dewpoint -2°C (28°F)
Humidity 75%
Altimeter 30.15"Hg
Sea Level Pressure 1021mb
Field Elevation 4396.33'
None Recorded

Additional weather within a 92.6km radius of OITM

Map ICAO Location
OITT 87.8km N (006°)

24 Hour Weather History

Loading
-

24 Hour Weather Graphs

Loading
-

CheckWX.com is intended as a tool to help pilots better visualize weather data. It is not intended as a substitute for an official weather briefing obtained from a Flight Service Station. CheckWX.com does not meet the FAA requirements for an official pre-flight weather briefing. Therefore, it's important that pilots still call and obtain an official FSS pre-flight weather briefing.